• Join FlightAware (Why Join?)
  • Login
  • US Flag 
10:38PM EST


 

Airport Tracker/Info


-or-


 

Live Flight TrackerFlight Track Log ✈ SKW5631 ✈ 28-Sep-2013 ✈ KSFO - KBUR

Flight Track Log - Related Links

Times and Time Zones

All times are in EDT time to prevent confusion due to time zone crossing. See the SKW5631 flight status page for this flight to view local times or setup timezone preferences in your user account.

Time Position Orientation Groundspeed Altitude Reporting Facility
EDT Latitude Longitude Course Direction KTS MPH feet Rate Location/Type
10:14PM 37.6333 -122.3667 135° Southeast 160 184 800  Level Northern Cal TRACON
10:15PM 37.6833 -122.3667 360° North 191 220 2,800 1,620 Climbing Northern Cal TRACON
10:16PM 37.7333 -122.3667 360° North 226 260 4,000 600 Climbing Northern Cal TRACON
10:17PM 37.2699 -122.1132 130° Southeast  Level FlightAware Approximate
10:17PM 37.8000 -122.3667 360° North 228 262 4,000  Level Northern Cal TRACON
10:18PM 37.1766 -121.9854 133° Southeast  Level FlightAware Approximate
10:18PM 37.8333 -122.4333 302° West 229 264 4,000  Level Northern Cal TRACON
10:19PM 37.0798 -121.8622 135° Southeast  Level FlightAware Approximate
10:20PM 37.8000 -122.5172 243° Southwest 215 247 4,000  Level Oakland Center
10:21PM 37.7456 -122.5453 202° Southwest 216 249 5,800 1,860 Climbing Oakland Center
10:22PM 37.6728 -122.5522 184° South 255 293 7,800 1,560 Climbing Oakland Center
10:23PM 37.6083 -122.4906 143° Southeast 290 334 9,000 1,200 Climbing Oakland Center
10:24PM 37.5472 -122.4242 139° Southeast 291 335 10,300 1,380 Climbing Oakland Center
10:25PM 37.4736 -122.3461 140° Southeast 343 395 11,900 1,860 Climbing Oakland Center
10:26PM 37.3944 -122.2597 139° Southeast 373 429 14,200 2,160 Climbing Oakland Center
10:27PM 37.3122 -122.1706 139° Southeast 388 447 16,400 2,100 Climbing Oakland Center
10:28PM 37.2289 -122.0789 139° Southeast 397 457 18,500 1,800 Climbing Oakland Center
10:29PM 37.1408 -121.9867 140° Southeast 410 472 20,100 1,680 Climbing Oakland Center
10:30PM 37.0511 -121.8917 140° Southeast 422 486 21,900 1,920 Climbing Oakland Center
10:31PM 36.9419 -121.7756 140° Southeast 430 495 24,100 1,920 Climbing Oakland Center
10:32PM 36.8511 -121.6817 140° Southeast 426 490 25,900 1,440 Climbing Oakland Center
10:33PM 36.7669 -121.5911 139° Southeast 424 488 27,100 1,140 Climbing Oakland Center
10:34PM 36.6731 -121.4922 140° Southeast 438 504 28,200 1,020 Climbing Oakland Center
10:35PM 36.5769 -121.3906 140° Southeast 450 518 29,200 1,080 Climbing Oakland Center
10:36PM 36.4794 -121.2872 140° Southeast 459 528 30,400 1,140 Climbing Oakland Center
10:37PM 36.3803 -121.1836 140° Southeast 464 534 31,600 1,140 Climbing Oakland Center
10:38PM 36.2822 -121.0800 140° Southeast 464 534 32,800 660 Climbing Oakland Center
10:39PM 36.1836 -120.9786 140° Southeast 463 533 33,000 60 Climbing Oakland Center
10:40PM 36.0867 -120.8772 140° Southeast 458 527 33,000  Level Oakland Center
10:41PM 35.9906 -120.7775 140° Southeast 454 522 33,000  Level Oakland Center
10:42PM 35.8753 -120.6589 140° Southeast 451 519 33,000  Level Oakland Center
10:43PM 35.7786 -120.5594 140° Southeast 450 518 33,000  Level Oakland Center
10:44PM 35.6808 -120.4594 140° Southeast 455 524 33,000  Level Oakland Center
10:45PM 35.5986 -120.3750 140° Southeast 455 524 33,000  Level Los Angeles Center
10:46PM 35.5000 -120.2761 141° Southeast 456 525 33,000 -300 Level Los Angeles Center
10:47PM 35.4008 -120.1775 141° Southeast 458 527 32,400 -1,380 Descending Los Angeles Center
10:48PM 35.3014 -120.0728 139° Southeast 459 528 30,200 -2,220 Descending Los Angeles Center
10:49PM 35.2064 -119.9778 141° Southeast 444 511 27,900 -2,160 Descending Los Angeles Center
10:50PM 35.1186 -119.8906 141° Southeast 415 478 25,900 -1,920 Descending Los Angeles Center
10:51PM 35.0422 -119.7969 135° Southeast 395 455 24,100 -1,980 Descending Los Angeles Center
10:52PM 34.9611 -119.6861 132° Southeast 370 426 21,900 -1,980 Descending Los Angeles Center
10:53PM 34.8936 -119.5961 132° Southeast 362 417 20,100 -1,800 Descending Los Angeles Center
10:54PM 34.8275 -119.5069 132° Southeast 358 412 18,300 -1,800 Descending Los Angeles Center
10:55PM 34.7619 -119.4200 133° Southeast 352 405 16,500 -1,800 Descending Los Angeles Center
10:56PM 34.6981 -119.3342 132° Southeast 344 396 14,700 -1,680 Descending Los Angeles Center
10:57PM 34.6492 -119.2689 132° Southeast 334 384 13,200 -1,860 Descending Los Angeles Center
10:58PM 34.5706 -119.1669 133° Southeast 317 365 11,000 -1,140 Descending Los Angeles Center
10:59PM 34.5131 -119.0919 133° Southeast 306 352 10,900 -60 Descending Los Angeles Center
11:00PM 34.4583 -119.0153 131° Southeast 302 348 10,900 -360 Level Los Angeles Center
11:01PM 34.4042 -118.9375 130° Southeast 301 346 10,200 -1,080 Descending Los Angeles Center
11:02PM 34.3550 -118.8558 126° Southeast 299 344 8,800 -1,440 Descending Los Angeles Center
11:03PM 34.3056 -118.7836 130° Southeast 281 323 7,300 -1,680 Descending Los Angeles Center
11:04PM 34.2622 -118.7114 126° Southeast 269 310 5,500 -1,680 Descending Los Angeles Center
11:05PM 34.2178 -118.6406 127° Southeast 266 306 4,000 -780 Descending Los Angeles Center
11:06PM 34.2014 -118.5664 105° East 240 276 4,000 -480 Level Los Angeles Center
11:07PM 34.1992 -118.4994 92° East 213 245 3,100 -960 Descending Los Angeles Center
11:08PM 34.1994 -118.4486 90° East 182 209 2,100 -840 Descending Los Angeles Center
11:09PM 34.1986 -118.3972 91° East 162 186 1,500 -600 Descending Los Angeles Center
11:10PM 34.1986 -118.3444 90° East 156 180 1,000 -540 Descending Los Angeles Center